地図

経路データ

SID SEASON NUMBER BASIN SUBBASIN NAME ISO_TIME NATURE LAT LON WMO_WIND WMO_PRES WMO_AGENCY TRACK_TYPE DIST2LAND LANDFALL IFLAG USA_AGENCY USA_ATCF_ID USA_LAT USA_LON USA_RECORD USA_STATUS USA_WIND USA_PRES USA_SSHS USA_R34_NE USA_R34_SE USA_R34_SW USA_R34_NW USA_R50_NE USA_R50_SE USA_R50_SW USA_R50_NW USA_R64_NE USA_R64_SE USA_R64_SW USA_R64_NW USA_POCI USA_ROCI USA_RMW USA_EYE TOKYO_LAT TOKYO_LON TOKYO_GRADE TOKYO_WIND TOKYO_PRES TOKYO_R50_DIR TOKYO_R50_LONG TOKYO_R50_SHORT TOKYO_R30_DIR TOKYO_R30_LONG TOKYO_R30_SHORT TOKYO_LAND CMA_LAT CMA_LON CMA_CAT CMA_WIND CMA_PRES HKO_LAT HKO_LON HKO_CAT HKO_WIND HKO_PRES NEWDELHI_LAT NEWDELHI_LON NEWDELHI_GRADE NEWDELHI_WIND NEWDELHI_PRES NEWDELHI_CI NEWDELHI_DP NEWDELHI_POCI REUNION_LAT REUNION_LON REUNION_TYPE REUNION_WIND REUNION_PRES REUNION_TNUM REUNION_CI REUNION_RMW REUNION_R34_NE REUNION_R34_SE REUNION_R34_SW REUNION_R34_NW REUNION_R50_NE REUNION_R50_SE REUNION_R50_SW REUNION_R50_NW REUNION_R64_NE REUNION_R64_SE REUNION_R64_SW REUNION_R64_NW BOM_LAT BOM_LON BOM_TYPE BOM_WIND BOM_PRES BOM_TNUM BOM_CI BOM_RMW BOM_R34_NE BOM_R34_SE BOM_R34_SW BOM_R34_NW BOM_R50_NE BOM_R50_SE BOM_R50_SW BOM_R50_NW BOM_R64_NE BOM_R64_SE BOM_R64_SW BOM_R64_NW BOM_ROCI BOM_POCI BOM_EYE BOM_POS_METHOD BOM_PRES_METHOD NADI_LAT NADI_LON NADI_CAT NADI_WIND NADI_PRES WELLINGTON_LAT WELLINGTON_LON WELLINGTON_WIND WELLINGTON_PRES DS824_LAT DS824_LON DS824_STAGE DS824_WIND DS824_PRES TD9636_LAT TD9636_LON TD9636_STAGE TD9636_WIND TD9636_PRES TD9635_LAT TD9635_LON TD9635_WIND TD9635_PRES TD9635_ROCI NEUMANN_LAT NEUMANN_LON NEUMANN_CLASS NEUMANN_WIND NEUMANN_PRES MLC_LAT MLC_LON MLC_CLASS MLC_WIND MLC_PRES USA_GUST BOM_GUST BOM_GUST_PER REUNION_GUST REUNION_GUST_PER USA_SEAHGT USA_SEARAD_NE USA_SEARAD_SE USA_SEARAD_SW USA_SEARAD_NW STORM_SPEED STORM_DIR
1981207S12087 1982 55 SI MM NOT_NAMED 1981-07-25 12:00:00 TS -11.8000 86.7000 main 1758 1758 O_________O_O_ jtwc_sh SH011982 -11.8000 86.7000 20 -1 -11.8000 86.7000 1 20 -11.8000 86.7000 TC 20 4 301
1981207S12087 1982 55 SI MM NOT_NAMED 1981-07-25 15:00:00 TS -11.7077 86.5430 main 1768 1761 P_________P_P_ SH011982 -11.7075 86.5450 22 -1 -11.7079 86.5389 1 21 -11.7075 86.5450 TC 22 4 304
1981207S12087 1982 55 SI MM NOT_NAMED 1981-07-25 18:00:00 TS -11.6009 86.3974 main 1770 1770 O_________P_O_ jtwc_sh SH011982 -11.6000 86.4000 25 -1 -11.6026 86.3923 1 22 -11.6000 86.4000 TC 25 4 313
1981207S12087 1982 55 SI MM NOT_NAMED 1981-07-25 21:00:00 TS -11.4670 86.2765 main 1772 1765 P_________P_P_ SH011982 -11.4650 86.2775 25 -1 -11.4710 86.2745 1 23 -11.4650 86.2775 TC 25 4 327
1981207S12087 1982 55 SI MM NOT_NAMED 1981-07-26 00:00:00 TS -11.3000 86.2000 main 1767 1754 O_________O_O_ jtwc_sh SH011982 -11.3000 86.2000 25 -1 -11.3000 86.2000 1 25 -11.3000 86.2000 TC 25 4 346
1981207S12087 1982 55 SI MM NOT_NAMED 1981-07-26 03:00:00 TS -11.1044 86.1866 main 1754 1741 P_________P_P_ SH011982 -11.1150 86.1925 25 -1 -11.0834 86.1748 1 25 -11.1150 86.1925 TC 25 4 0
1981207S12087 1982 55 SI MM NOT_NAMED 1981-07-26 06:00:00 TS -10.8808 86.1909 main 1741 1722 O_________P_O_ jtwc_sh SH011982 -10.9000 86.2000 25 -1 -10.8424 86.1727 1 25 -10.9000 86.2000 TC 25 5 358
1981207S12087 1982 55 SI MM NOT_NAMED 1981-07-26 09:00:00 TS -10.6301 86.1731 main 1722 1715 P_________P_P_ SH011982 -10.6425 86.1800 25 -1 -10.6052 86.1592 1 25 -10.6425 86.1800 TC 25 5 349
1981207S12087 1982 55 SI MM NOT_NAMED 1981-07-26 12:00:00 TS -10.4000 86.1000 main 1718 1712 O_________O_O_ jtwc_sh SH011982 -10.4000 86.1000 25 -1 -10.4000 86.1000 1 25 -10.4000 86.1000 TC 25 5 329
1981207S12087 1982 55 SI MM NOT_NAMED 1981-07-26 15:00:00 TS -10.2198 85.9263 main 1724 1724 P_________P_P_ SH011982 -10.2200 85.9225 27 -1 -10.2195 85.9339 1 26 -10.2200 85.9225 TC 27 5 308
1981207S12087 1982 55 SI MM NOT_NAMED 1981-07-26 18:00:00 TS -10.0934 85.7074 main 1737 1737 O_________P_O_ jtwc_sh SH011982 -10.1000 85.7000 30 -1 -10.0802 85.7222 1 27 -10.1000 85.7000 TC 30 5 297
1981207S12087 1982 55 SI MM NOT_NAMED 1981-07-26 21:00:00 TS -10.0036 85.4898 main 1749 1749 P_________P_P_ SH011982 -10.0050 85.4850 30 -1 -10.0008 85.4995 1 28 -10.0050 85.4850 TC 30 4 283
1981207S12087 1982 55 SI MM NOT_NAMED 1981-07-27 00:00:00 TS -10.0000 85.3000 main 1768 1768 O_________O_O_ jtwc_sh SH011982 -10.0000 85.3000 30 -1 -10.0000 85.3000 1 30 -10.0000 85.3000 TC 30 3 252
1981207S12087 1982 55 SI MM NOT_NAMED 1981-07-27 03:00:00 TS -10.1042 85.1764 main 1783 1783 P_________P_P_ SH011982 -10.1125 85.1850 30 -1 -10.0878 85.1592 1 28 -10.1125 85.1850 TC 30 4 217
1981207S12087 1982 55 SI MM NOT_NAMED 1981-07-27 06:00:00 TS -10.2842 85.0826 main 1804 1804 O_________P_O_ jtwc_sh SH011982 -10.3000 85.1000 30 -1 -10.2524 85.0477 1 27 -10.3000 85.1000 TC 30 4 207
1981207S12087 1982 55 SI MM NOT_NAMED 1981-07-27 09:00:00 TS -10.4836 84.9774 main 1825 1825 P_________P_P_ SH011982 -10.4925 84.9850 27 -1 -10.4659 84.9623 1 26 -10.4925 84.9850 TC 27 5 203
1981207S12087 1982 55 SI MM NOT_NAMED 1981-07-27 12:00:00 TS -10.7000 84.9000 main 1846 1846 O_________O_O_ jtwc_sh SH011982 -10.7000 84.9000 25 -1 -10.7000 84.9000 1 25 -10.7000 84.9000 TC 25 4 193
1981207S12087 1982 55 SI MM NOT_NAMED 1981-07-27 15:00:00 TS -10.8985 84.8808 main 1858 1858 P_________P_P_ SH011982 -10.8925 84.8925 25 -1 -10.9106 84.8574 1 25 -10.8925 84.8925 TC 25 4 0
1981207S12087 1982 55 SI MM NOT_NAMED 1981-07-27 18:00:00 TS -11.1117 84.8783 main 1871 1871 O_________P_O_ jtwc_sh SH011982 -11.1000 84.9000 25 -1 -11.1350 84.8349 1 25 -11.1000 84.9000 TC 25 5 184
1981207S12087 1982 55 SI MM NOT_NAMED 1981-07-27 21:00:00 TS -11.3556 84.8450 main 1898 1898 P_________P_P_ SH011982 -11.3500 84.8575 25 -1 -11.3669 84.8199 1 25 -11.3500 84.8575 TC 25 5 189
1981207S12087 1982 55 SI MM NOT_NAMED 1981-07-28 00:00:00 TS -11.6000 84.8000 main 1911 1911 O_________O_O_ jtwc_sh SH011982 -11.6000 84.8000 25 -1 -11.6000 84.8000 1 25 -11.6000 84.8000 TC 25 5 191
1981207S12087 1982 55 SI MM NOT_NAMED 1981-07-28 03:00:00 TS -11.8098 84.7551 main 1924 1924 P_________P_P_ SH011982 -11.8000 84.7500 25 -1 -11.8294 84.7654 1 23 -11.8000 84.7500 TC 25 4 192
1981207S12087 1982 55 SI MM NOT_NAMED 1981-07-28 06:00:00 TS -12.0183 84.7059 main 1945 1945 O_________P_O_ jtwc_sh SH011982 -12.0000 84.7000 25 -1 -12.0550 84.7177 1 22 -12.0000 84.7000 TC 25 5 192
1981207S12087 1982 55 SI MM NOT_NAMED 1981-07-28 09:00:00 TS -12.2510 84.6537 main 1965 1965 P_________P_P_ SH011982 -12.2375 84.6500 22 -1 -12.2781 84.6611 1 21 -12.2375 84.6500 TC 22 5 192
1981207S12087 1982 55 SI MM NOT_NAMED 1981-07-28 12:00:00 TS -12.5000 84.6000 main 1987 O_________O_O_ jtwc_sh SH011982 -12.5000 84.6000 20 -1 -12.5000 84.6000 1 20 -12.5000 84.6000 TC 20 5 194

IBTrACS Databaseについて

本データベースは、米国NOAAが公開する1842年以降の世界の熱帯低気圧のベストトラックデータアーカイブInternational Best Track Archive for Climate Stewardship (IBTrACS)を、ウェブで閲覧しやすい形式に変換したものです。

最終更新日:2021-10-21